sensor_id;sensor_type;location;lat;lon;timestamp;pressure;altitude;pressure_sealevel;temperature;humidity
43480;BME280;29067;35.492;-97.520;2023-04-08T00:01:20;97887.06;;;15.31;16.15
43480;BME280;29067;35.492;-97.520;2023-04-08T00:03:47;97890.11;;;14.59;16.53
43480;BME280;29067;35.492;-97.520;2023-04-08T00:06:15;97885.81;;;14.29;16.57
43480;BME280;29067;35.492;-97.520;2023-04-08T00:08:43;97886.24;;;14.29;16.91
43480;BME280;29067;35.492;-97.520;2023-04-08T00:11:11;97877.60;;;14.93;16.68
43480;BME280;29067;35.492;-97.520;2023-04-08T00:13:38;97881.68;;;13.52;16.65
43480;BME280;29067;35.492;-97.520;2023-04-08T00:16:06;97880.70;;;14.76;16.18
43480;BME280;29067;35.492;-97.520;2023-04-08T00:18:34;97882.73;;;13.35;16.68
43480;BME280;29067;35.492;-97.520;2023-04-08T00:21:01;97884.19;;;14.08;16.16
43480;BME280;29067;35.492;-97.520;2023-04-08T00:23:29;97885.00;;;14.11;15.81
43480;BME280;29067;35.492;-97.520;2023-04-08T00:25:57;97876.88;;;15.09;15.08
43480;BME280;29067;35.492;-97.520;2023-04-08T00:28:24;97878.74;;;14.79;14.99
43480;BME280;29067;35.492;-97.520;2023-04-08T00:30:53;97884.87;;;14.64;14.58
43480;BME280;29067;35.492;-97.520;2023-04-08T00:33:21;97885.00;;;14.37;15.00
43480;BME280;29067;35.492;-97.520;2023-04-08T00:35:49;97889.08;;;13.73;15.06
43480;BME280;29067;35.492;-97.520;2023-04-08T00:38:17;97884.79;;;14.53;14.96
43480;BME280;29067;35.492;-97.520;2023-04-08T00:40:45;97887.27;;;15.95;15.16
43480;BME280;29067;35.492;-97.520;2023-04-08T00:43:13;97892.72;;;13.63;15.28
43480;BME280;29067;35.492;-97.520;2023-04-08T00:45:41;97895.83;;;14.18;15.47
43480;BME280;29067;35.492;-97.520;2023-04-08T00:48:09;97896.80;;;13.83;15.78
43480;BME280;29067;35.492;-97.520;2023-04-08T00:50:38;97894.13;;;14.74;15.38
43480;BME280;29067;35.492;-97.520;2023-04-08T00:53:06;97892.20;;;16.36;15.18
43480;BME280;29067;35.492;-97.520;2023-04-08T00:55:34;97891.96;;;14.86;15.95
43480;BME280;29067;35.492;-97.520;2023-04-08T00:58:02;97891.23;;;14.63;15.70
43480;BME280;29067;35.492;-97.520;2023-04-08T01:00:31;97886.39;;;15.45;15.49
43480;BME280;29067;35.492;-97.520;2023-04-08T01:03:06;97883.61;;;15.56;15.70
43480;BME280;29067;35.492;-97.520;2023-04-08T01:05:44;97886.60;;;14.88;15.82
43480;BME280;29067;35.492;-97.520;2023-04-08T01:08:17;97888.86;;;14.83;15.99
43480;BME280;29067;35.492;-97.520;2023-04-08T01:10:48;97889.46;;;14.44;16.21
43480;BME280;29067;35.492;-97.520;2023-04-08T01:13:18;97889.65;;;14.28;16.63
43480;BME280;29067;35.492;-97.520;2023-04-08T01:15:48;97892.49;;;13.46;17.01
43480;BME280;29067;35.492;-97.520;2023-04-08T01:18:17;97894.11;;;14.55;16.95
43480;BME280;29067;35.492;-97.520;2023-04-08T01:20:46;97890.70;;;14.35;17.01
43480;BME280;29067;35.492;-97.520;2023-04-08T01:23:22;97894.04;;;13.44;17.54
43480;BME280;29067;35.492;-97.520;2023-04-08T01:25:57;97892.91;;;13.84;17.35
43480;BME280;29067;35.492;-97.520;2023-04-08T01:28:28;97893.30;;;13.88;17.58
43480;BME280;29067;35.492;-97.520;2023-04-08T01:30:58;97887.88;;;14.84;17.14
43480;BME280;29067;35.492;-97.520;2023-04-08T01:33:28;97884.48;;;14.58;17.29
43480;BME280;29067;35.492;-97.520;2023-04-08T01:35:58;97888.36;;;14.26;17.51
43480;BME280;29067;35.492;-97.520;2023-04-08T01:38:33;97882.64;;;14.58;17.31
43480;BME280;29067;35.492;-97.520;2023-04-08T01:41:04;97884.40;;;13.09;17.82
43480;BME280;29067;35.492;-97.520;2023-04-08T01:43:33;97878.67;;;13.81;17.95
43480;BME280;29067;35.492;-97.520;2023-04-08T01:46:02;97874.98;;;13.84;17.57
43480;BME280;29067;35.492;-97.520;2023-04-08T01:48:30;97875.85;;;13.19;17.71
43480;BME280;29067;35.492;-97.520;2023-04-08T01:50:59;97877.72;;;13.79;17.64
43480;BME280;29067;35.492;-97.520;2023-04-08T01:53:28;97873.62;;;14.11;17.55
43480;BME280;29067;35.492;-97.520;2023-04-08T01:56:05;97875.53;;;13.96;17.38
43480;BME280;29067;35.492;-97.520;2023-04-08T01:58:40;97876.82;;;14.41;17.47
43480;BME280;29067;35.492;-97.520;2023-04-08T02:01:12;97877.83;;;14.39;17.44
43480;BME280;29067;35.492;-97.520;2023-04-08T02:03:43;97882.33;;;14.04;17.43
43480;BME280;29067;35.492;-97.520;2023-04-08T02:06:12;97880.70;;;14.17;18.13
43480;BME280;29067;35.492;-97.520;2023-04-08T02:08:41;97879.43;;;14.47;17.36
43480;BME280;29067;35.492;-97.520;2023-04-08T02:11:08;97881.42;;;13.61;18.00
43480;BME280;29067;35.492;-97.520;2023-04-08T02:13:36;97880.37;;;14.46;17.36
43480;BME280;29067;35.492;-97.520;2023-04-08T02:16:11;97888.35;;;12.89;17.82
43480;BME280;29067;35.492;-97.520;2023-04-08T02:18:44;97895.97;;;11.91;18.02
43480;BME280;29067;35.492;-97.520;2023-04-08T02:21:15;97895.41;;;13.03;18.13
43480;BME280;29067;35.492;-97.520;2023-04-08T02:23:48;97896.28;;;13.00;17.75
43480;BME280;29067;35.492;-97.520;2023-04-08T02:26:17;97891.92;;;12.72;17.80
43480;BME280;29067;35.492;-97.520;2023-04-08T02:28:47;97889.31;;;13.30;18.15
43480;BME280;29067;35.492;-97.520;2023-04-08T02:31:17;97900.83;;;11.48;18.33
43480;BME280;29067;35.492;-97.520;2023-04-08T02:33:46;97898.10;;;13.80;17.84
43480;BME280;29067;35.492;-97.520;2023-04-08T02:36:15;97907.32;;;11.82;18.48
43480;BME280;29067;35.492;-97.520;2023-04-08T02:38:47;97907.28;;;11.15;18.92
43480;BME280;29067;35.492;-97.520;2023-04-08T02:41:16;97912.20;;;10.48;19.25
43480;BME280;29067;35.492;-97.520;2023-04-08T02:43:43;97913.37;;;10.71;19.25
43480;BME280;29067;35.492;-97.520;2023-04-08T02:46:12;97912.95;;;11.65;18.80
43480;BME280;29067;35.492;-97.520;2023-04-08T02:48:41;97915.93;;;11.51;19.16
43480;BME280;29067;35.492;-97.520;2023-04-08T02:51:09;97916.31;;;12.29;19.05
43480;BME280;29067;35.492;-97.520;2023-04-08T02:53:38;97916.61;;;12.64;18.88
43480;BME280;29067;35.492;-97.520;2023-04-08T02:56:08;97917.24;;;13.34;18.63
43480;BME280;29067;35.492;-97.520;2023-04-08T02:58:36;97914.97;;;12.68;18.76
43480;BME280;29067;35.492;-97.520;2023-04-08T03:01:04;97913.03;;;13.17;19.15
43480;BME280;29067;35.492;-97.520;2023-04-08T03:03:32;97914.49;;;12.32;19.76
43480;BME280;29067;35.492;-97.520;2023-04-08T03:06:00;97917.77;;;11.07;18.77
43480;BME280;29067;35.492;-97.520;2023-04-08T03:08:28;97919.08;;;10.93;18.27
43480;BME280;29067;35.492;-97.520;2023-04-08T03:10:56;97919.45;;;11.64;18.63
43480;BME280;29067;35.492;-97.520;2023-04-08T03:13:24;97918.65;;;10.62;18.94
43480;BME280;29067;35.492;-97.520;2023-04-08T03:15:52;97920.31;;;10.67;19.09
43480;BME280;29067;35.492;-97.520;2023-04-08T03:18:20;97922.19;;;10.26;19.23
43480;BME280;29067;35.492;-97.520;2023-04-08T03:20:47;97922.50;;;10.27;19.30
43480;BME280;29067;35.492;-97.520;2023-04-08T03:23:15;97919.96;;;10.94;18.89
43480;BME280;29067;35.492;-97.520;2023-04-08T03:25:43;97919.52;;;10.44;19.23
43480;BME280;29067;35.492;-97.520;2023-04-08T03:28:11;97919.28;;;9.84;19.63
43480;BME280;29067;35.492;-97.520;2023-04-08T03:30:39;97913.51;;;10.73;19.24
43480;BME280;29067;35.492;-97.520;2023-04-08T03:33:06;97920.05;;;10.46;19.50
43480;BME280;29067;35.492;-97.520;2023-04-08T03:35:34;97922.40;;;10.97;19.31
43480;BME280;29067;35.492;-97.520;2023-04-08T03:38:03;97925.07;;;10.84;19.51
43480;BME280;29067;35.492;-97.520;2023-04-08T03:40:30;97925.91;;;10.77;19.75
43480;BME280;29067;35.492;-97.520;2023-04-08T03:42:58;97924.02;;;10.23;19.95
43480;BME280;29067;35.492;-97.520;2023-04-08T03:45:26;97923.16;;;10.12;20.03
43480;BME280;29067;35.492;-97.520;2023-04-08T03:47:54;97923.59;;;9.83;20.21
43480;BME280;29067;35.492;-97.520;2023-04-08T03:50:22;97924.26;;;11.20;19.85
43480;BME280;29067;35.492;-97.520;2023-04-08T03:52:51;97923.24;;;10.77;20.14
43480;BME280;29067;35.492;-97.520;2023-04-08T03:55:18;97927.06;;;9.70;20.38
43480;BME280;29067;35.492;-97.520;2023-04-08T03:57:46;97926.33;;;11.67;20.01
43480;BME280;29067;35.492;-97.520;2023-04-08T04:00:15;97929.30;;;10.31;20.78
43480;BME280;29067;35.492;-97.520;2023-04-08T04:02:43;97933.16;;;10.48;20.81
43480;BME280;29067;35.492;-97.520;2023-04-08T04:05:11;97936.34;;;10.60;20.94
43480;BME280;29067;35.492;-97.520;2023-04-08T04:07:39;97934.40;;;10.57;21.19
43480;BME280;29067;35.492;-97.520;2023-04-08T04:10:07;97937.01;;;9.81;21.69
43480;BME280;29067;35.492;-97.520;2023-04-08T04:12:36;97937.46;;;10.93;21.32
43480;BME280;29067;35.492;-97.520;2023-04-08T04:15:04;97940.06;;;9.81;21.95
43480;BME280;29067;35.492;-97.520;2023-04-08T04:17:32;97942.94;;;8.29;22.89
43480;BME280;29067;35.492;-97.520;2023-04-08T04:20:03;97939.89;;;10.20;22.10
43480;BME280;29067;35.492;-97.520;2023-04-08T04:22:31;97945.41;;;9.72;22.48
43480;BME280;29067;35.492;-97.520;2023-04-08T04:24:58;97943.85;;;10.56;22.10
43480;BME280;29067;35.492;-97.520;2023-04-08T04:27:26;97947.13;;;9.80;22.50
43480;BME280;29067;35.492;-97.520;2023-04-08T04:29:54;97941.72;;;10.58;22.23
43480;BME280;29067;35.492;-97.520;2023-04-08T04:32:22;97935.16;;;10.84;22.03
43480;BME280;29067;35.492;-97.520;2023-04-08T04:34:50;97935.62;;;11.16;21.96
43480;BME280;29067;35.492;-97.520;2023-04-08T04:37:18;97931.58;;;11.00;21.71
43480;BME280;29067;35.492;-97.520;2023-04-08T04:39:46;97929.54;;;10.32;22.19
43480;BME280;29067;35.492;-97.520;2023-04-08T04:42:24;97927.00;;;9.89;22.71
43480;BME280;29067;35.492;-97.520;2023-04-08T04:44:52;97919.18;;;10.98;22.49
43480;BME280;29067;35.492;-97.520;2023-04-08T04:47:29;97916.65;;;10.37;22.30
43480;BME280;29067;35.492;-97.520;2023-04-08T04:49:58;97919.19;;;11.00;22.35
43480;BME280;29067;35.492;-97.520;2023-04-08T04:52:25;97921.69;;;9.11;23.17
43480;BME280;29067;35.492;-97.520;2023-04-08T04:54:55;97922.91;;;9.30;23.13
43480;BME280;29067;35.492;-97.520;2023-04-08T04:57:24;97920.46;;;10.64;23.48
43480;BME280;29067;35.492;-97.520;2023-04-08T04:59:52;97922.05;;;10.63;22.71
43480;BME280;29067;35.492;-97.520;2023-04-08T05:02:19;97918.82;;;10.45;23.17
43480;BME280;29067;35.492;-97.520;2023-04-08T05:04:47;97917.44;;;9.65;23.43
43480;BME280;29067;35.492;-97.520;2023-04-08T05:07:15;97912.73;;;11.04;22.86
43480;BME280;29067;35.492;-97.520;2023-04-08T05:09:43;97907.11;;;11.10;23.12
43480;BME280;29067;35.492;-97.520;2023-04-08T05:12:11;97910.93;;;10.83;23.01
43480;BME280;29067;35.492;-97.520;2023-04-08T05:14:39;97912.81;;;10.62;23.21
43480;BME280;29067;35.492;-97.520;2023-04-08T05:17:06;97916.44;;;11.37;23.24
43480;BME280;29067;35.492;-97.520;2023-04-08T05:19:34;97919.98;;;11.83;23.39
43480;BME280;29067;35.492;-97.520;2023-04-08T05:22:02;97920.08;;;11.11;23.02
43480;BME280;29067;35.492;-97.520;2023-04-08T05:24:30;97920.24;;;12.00;23.47
43480;BME280;29067;35.492;-97.520;2023-04-08T05:26:58;97913.41;;;11.74;23.17
43480;BME280;29067;35.492;-97.520;2023-04-08T05:29:26;97914.51;;;11.49;23.18
43480;BME280;29067;35.492;-97.520;2023-04-08T05:31:54;97913.70;;;10.90;23.79
43480;BME280;29067;35.492;-97.520;2023-04-08T05:34:21;97914.91;;;11.18;23.63
43480;BME280;29067;35.492;-97.520;2023-04-08T05:36:50;97915.10;;;11.45;23.23
43480;BME280;29067;35.492;-97.520;2023-04-08T05:39:18;97919.22;;;11.00;23.60
43480;BME280;29067;35.492;-97.520;2023-04-08T05:41:47;97925.51;;;12.72;23.48
43480;BME280;29067;35.492;-97.520;2023-04-08T05:44:15;97929.57;;;11.26;23.64
43480;BME280;29067;35.492;-97.520;2023-04-08T05:46:43;97930.68;;;12.15;23.41
43480;BME280;29067;35.492;-97.520;2023-04-08T05:49:11;97929.70;;;12.21;23.26
43480;BME280;29067;35.492;-97.520;2023-04-08T05:51:39;97925.53;;;11.69;23.42
43480;BME280;29067;35.492;-97.520;2023-04-08T05:54:07;97922.84;;;11.88;23.43
43480;BME280;29067;35.492;-97.520;2023-04-08T05:56:36;97923.70;;;11.52;23.88
43480;BME280;29067;35.492;-97.520;2023-04-08T05:59:04;97918.46;;;10.71;24.19
43480;BME280;29067;35.492;-97.520;2023-04-08T06:01:32;97911.86;;;11.45;24.37
43480;BME280;29067;35.492;-97.520;2023-04-08T06:04:00;97908.23;;;11.80;24.09
43480;BME280;29067;35.492;-97.520;2023-04-08T06:06:28;97909.73;;;10.64;24.68
43480;BME280;29067;35.492;-97.520;2023-04-08T06:08:56;97912.20;;;9.99;24.50
43480;BME280;29067;35.492;-97.520;2023-04-08T06:11:24;97912.08;;;11.85;24.44
43480;BME280;29067;35.492;-97.520;2023-04-08T06:13:51;97914.69;;;10.83;24.85
43480;BME280;29067;35.492;-97.520;2023-04-08T06:16:19;97912.91;;;10.37;24.68
43480;BME280;29067;35.492;-97.520;2023-04-08T06:18:47;97909.56;;;11.56;24.62
43480;BME280;29067;35.492;-97.520;2023-04-08T06:21:15;97912.01;;;11.05;24.94
43480;BME280;29067;35.492;-97.520;2023-04-08T06:23:43;97915.53;;;11.24;25.20
43480;BME280;29067;35.492;-97.520;2023-04-08T06:26:11;97919.99;;;9.42;26.08
43480;BME280;29067;35.492;-97.520;2023-04-08T06:28:39;97913.00;;;10.98;25.44
43480;BME280;29067;35.492;-97.520;2023-04-08T06:31:06;97908.74;;;11.32;25.20
43480;BME280;29067;35.492;-97.520;2023-04-08T06:33:34;97910.64;;;11.13;25.19
43480;BME280;29067;35.492;-97.520;2023-04-08T06:36:03;97907.39;;;10.75;25.63
43480;BME280;29067;35.492;-97.520;2023-04-08T06:38:32;97907.52;;;9.82;26.12
43480;BME280;29067;35.492;-97.520;2023-04-08T06:41:02;97901.14;;;10.79;25.70
43480;BME280;29067;35.492;-97.520;2023-04-08T06:43:37;97901.08;;;10.96;25.80
43480;BME280;29067;35.492;-97.520;2023-04-08T06:46:05;97905.97;;;10.23;26.59
43480;BME280;29067;35.492;-97.520;2023-04-08T06:48:33;97906.70;;;10.18;26.97
43480;BME280;29067;35.492;-97.520;2023-04-08T06:51:01;97907.21;;;10.38;26.82
43480;BME280;29067;35.492;-97.520;2023-04-08T06:53:29;97914.68;;;9.58;27.33
43480;BME280;29067;35.492;-97.520;2023-04-08T06:55:56;97913.41;;;10.18;26.52
43480;BME280;29067;35.492;-97.520;2023-04-08T06:58:25;97915.18;;;10.00;26.93
43480;BME280;29067;35.492;-97.520;2023-04-08T07:00:53;97909.78;;;9.66;27.22
43480;BME280;29067;35.492;-97.520;2023-04-08T07:03:21;97905.44;;;10.34;26.65
43480;BME280;29067;35.492;-97.520;2023-04-08T07:05:49;97905.51;;;10.13;27.04
43480;BME280;29067;35.492;-97.520;2023-04-08T07:08:17;97905.55;;;10.13;27.42
43480;BME280;29067;35.492;-97.520;2023-04-08T07:10:45;97901.35;;;9.97;27.49
43480;BME280;29067;35.492;-97.520;2023-04-08T07:13:12;97898.16;;;10.13;27.12
43480;BME280;29067;35.492;-97.520;2023-04-08T07:15:41;97894.85;;;10.41;26.43
43480;BME280;29067;35.492;-97.520;2023-04-08T07:18:09;97898.73;;;9.60;27.14
43480;BME280;29067;35.492;-97.520;2023-04-08T07:20:37;97901.83;;;9.77;27.38
43480;BME280;29067;35.492;-97.520;2023-04-08T07:23:05;97903.28;;;11.18;26.95
43480;BME280;29067;35.492;-97.520;2023-04-08T07:25:33;97908.24;;;10.41;27.14
43480;BME280;29067;35.492;-97.520;2023-04-08T07:28:01;97906.50;;;10.09;26.90
43480;BME280;29067;35.492;-97.520;2023-04-08T07:30:28;97907.29;;;9.52;27.67
43480;BME280;29067;35.492;-97.520;2023-04-08T07:32:56;97904.13;;;10.19;27.17
43480;BME280;29067;35.492;-97.520;2023-04-08T07:35:24;97901.83;;;10.52;26.71
43480;BME280;29067;35.492;-97.520;2023-04-08T07:37:52;97902.72;;;10.92;26.52
43480;BME280;29067;35.492;-97.520;2023-04-08T07:40:20;97903.31;;;10.61;27.02
43480;BME280;29067;35.492;-97.520;2023-04-08T07:42:48;97901.52;;;10.86;26.66
43480;BME280;29067;35.492;-97.520;2023-04-08T07:45:16;97898.85;;;11.45;26.43
43480;BME280;29067;35.492;-97.520;2023-04-08T07:47:44;97891.88;;;11.28;26.05
43480;BME280;29067;35.492;-97.520;2023-04-08T07:50:12;97890.13;;;11.60;26.19
43480;BME280;29067;35.492;-97.520;2023-04-08T07:52:40;97891.07;;;10.86;26.34
43480;BME280;29067;35.492;-97.520;2023-04-08T07:55:09;97891.41;;;10.32;26.93
43480;BME280;29067;35.492;-97.520;2023-04-08T07:57:37;97886.67;;;10.29;26.94
43480;BME280;29067;35.492;-97.520;2023-04-08T08:00:07;97886.86;;;10.59;26.87
43480;BME280;29067;35.492;-97.520;2023-04-08T08:02:35;97890.87;;;9.16;27.93
43480;BME280;29067;35.492;-97.520;2023-04-08T08:05:03;97889.12;;;9.36;27.59
43480;BME280;29067;35.492;-97.520;2023-04-08T08:07:31;97884.11;;;9.92;27.22
43480;BME280;29067;35.492;-97.520;2023-04-08T08:09:59;97884.64;;;9.77;27.68
43480;BME280;29067;35.492;-97.520;2023-04-08T08:12:27;97886.14;;;7.91;29.22
43480;BME280;29067;35.492;-97.520;2023-04-08T08:14:55;97889.73;;;9.04;28.76
43480;BME280;29067;35.492;-97.520;2023-04-08T08:17:23;97897.09;;;8.02;29.32
43480;BME280;29067;35.492;-97.520;2023-04-08T08:19:51;97895.15;;;8.31;28.93
43480;BME280;29067;35.492;-97.520;2023-04-08T08:22:19;97901.63;;;8.72;29.38
43480;BME280;29067;35.492;-97.520;2023-04-08T08:24:47;97908.02;;;7.59;29.96
43480;BME280;29067;35.492;-97.520;2023-04-08T08:27:15;97905.22;;;10.37;28.39
43480;BME280;29067;35.492;-97.520;2023-04-08T08:29:43;97915.10;;;7.82;29.60
43480;BME280;29067;35.492;-97.520;2023-04-08T08:32:11;97917.96;;;7.74;29.55
43480;BME280;29067;35.492;-97.520;2023-04-08T08:34:39;97912.59;;;8.72;29.58
43480;BME280;29067;35.492;-97.520;2023-04-08T08:37:07;97911.61;;;9.21;28.85
43480;BME280;29067;35.492;-97.520;2023-04-08T08:39:36;97914.53;;;10.41;28.26
43480;BME280;29067;35.492;-97.520;2023-04-08T08:42:03;97921.36;;;8.38;29.25
43480;BME280;29067;35.492;-97.520;2023-04-08T08:44:31;97922.05;;;8.83;29.00
43480;BME280;29067;35.492;-97.520;2023-04-08T08:46:59;97932.62;;;9.36;29.00
43480;BME280;29067;35.492;-97.520;2023-04-08T08:49:27;97934.27;;;9.99;28.43
43480;BME280;29067;35.492;-97.520;2023-04-08T08:51:55;97934.19;;;9.93;28.05
43480;BME280;29067;35.492;-97.520;2023-04-08T08:54:25;97933.09;;;8.32;29.19
43480;BME280;29067;35.492;-97.520;2023-04-08T08:56:53;97932.95;;;9.84;28.41
43480;BME280;29067;35.492;-97.520;2023-04-08T08:59:22;97937.14;;;9.56;28.44
43480;BME280;29067;35.492;-97.520;2023-04-08T09:01:51;97939.50;;;10.40;28.16
43480;BME280;29067;35.492;-97.520;2023-04-08T09:04:20;97940.90;;;9.88;28.58
43480;BME280;29067;35.492;-97.520;2023-04-08T09:09:47;97932.78;;;9.58;28.20
43480;BME280;29067;35.492;-97.520;2023-04-08T09:12:20;97933.61;;;9.57;28.27
43480;BME280;29067;35.492;-97.520;2023-04-08T09:14:48;97934.76;;;10.11;27.95
43480;BME280;29067;35.492;-97.520;2023-04-08T09:17:36;97933.65;;;10.20;28.14
43480;BME280;29067;35.492;-97.520;2023-04-08T09:20:06;97930.34;;;10.61;27.99
43480;BME280;29067;35.492;-97.520;2023-04-08T09:22:34;97928.79;;;10.93;27.97
43480;BME280;29067;35.492;-97.520;2023-04-08T09:25:24;97932.06;;;10.59;27.16
43480;BME280;29067;35.492;-97.520;2023-04-08T09:27:52;97934.54;;;11.05;27.73
43480;BME280;29067;35.492;-97.520;2023-04-08T09:30:23;97932.99;;;10.08;27.55
43480;BME280;29067;35.492;-97.520;2023-04-08T09:32:52;97935.36;;;9.36;27.75
43480;BME280;29067;35.492;-97.520;2023-04-08T09:35:22;97926.96;;;10.59;26.89
43480;BME280;29067;35.492;-97.520;2023-04-08T09:37:50;97926.56;;;10.16;27.64
43480;BME280;29067;35.492;-97.520;2023-04-08T09:40:23;97919.78;;;11.08;27.28
43480;BME280;29067;35.492;-97.520;2023-04-08T09:42:53;97921.03;;;10.54;27.97
43480;BME280;29067;35.492;-97.520;2023-04-08T09:45:24;97925.07;;;9.38;28.41
43480;BME280;29067;35.492;-97.520;2023-04-08T09:47:59;97923.64;;;10.49;28.79
43480;BME280;29067;35.492;-97.520;2023-04-08T09:50:31;97922.11;;;10.74;28.70
43480;BME280;29067;35.492;-97.520;2023-04-08T09:53:10;97915.95;;;10.12;28.82
43480;BME280;29067;35.492;-97.520;2023-04-08T09:55:43;97915.27;;;9.57;29.14
43480;BME280;29067;35.492;-97.520;2023-04-08T09:58:17;97916.99;;;9.59;28.67
43480;BME280;29067;35.492;-97.520;2023-04-08T10:00:48;97912.95;;;7.75;29.82
43480;BME280;29067;35.492;-97.520;2023-04-08T10:03:25;97907.59;;;8.74;29.30
43480;BME280;29067;35.492;-97.520;2023-04-08T10:05:54;97908.20;;;10.06;28.97
43480;BME280;29067;35.492;-97.520;2023-04-08T10:08:23;97905.44;;;10.93;28.16
43480;BME280;29067;35.492;-97.520;2023-04-08T10:10:52;97908.61;;;9.33;29.06
43480;BME280;29067;35.492;-97.520;2023-04-08T10:13:21;97905.80;;;9.26;29.34
43480;BME280;29067;35.492;-97.520;2023-04-08T10:15:49;97903.81;;;9.36;29.51
43480;BME280;29067;35.492;-97.520;2023-04-08T10:18:50;97899.05;;;10.11;28.89
43480;BME280;29067;35.492;-97.520;2023-04-08T10:21:35;97902.21;;;9.97;29.51
43480;BME280;29067;35.492;-97.520;2023-04-08T10:24:07;97904.52;;;10.02;29.59
43480;BME280;29067;35.492;-97.520;2023-04-08T10:26:41;97909.41;;;10.23;29.34
43480;BME280;29067;35.492;-97.520;2023-04-08T10:29:41;97914.25;;;9.10;29.94
43480;BME280;29067;35.492;-97.520;2023-04-08T10:32:27;97912.03;;;9.09;30.05
43480;BME280;29067;35.492;-97.520;2023-04-08T10:34:55;97911.18;;;8.33;30.85
43480;BME280;29067;35.492;-97.520;2023-04-08T10:37:23;97911.06;;;8.61;30.50
43480;BME280;29067;35.492;-97.520;2023-04-08T10:39:53;97909.63;;;8.48;30.20
43480;BME280;29067;35.492;-97.520;2023-04-08T10:42:27;97912.92;;;9.51;30.26
43480;BME280;29067;35.492;-97.520;2023-04-08T10:45:00;97911.83;;;10.18;30.09
43480;BME280;29067;35.492;-97.520;2023-04-08T10:47:28;97912.81;;;9.59;29.99
43480;BME280;29067;35.492;-97.520;2023-04-08T10:50:17;97914.73;;;9.87;29.96
43480;BME280;29067;35.492;-97.520;2023-04-08T10:52:47;97914.81;;;9.64;29.67
43480;BME280;29067;35.492;-97.520;2023-04-08T10:55:16;97911.39;;;8.85;30.36
43480;BME280;29067;35.492;-97.520;2023-04-08T10:57:55;97912.31;;;9.91;29.63
43480;BME280;29067;35.492;-97.520;2023-04-08T11:03:02;97917.71;;;8.90;29.92
43480;BME280;29067;35.492;-97.520;2023-04-08T11:05:30;97920.25;;;8.47;30.70
43480;BME280;29067;35.492;-97.520;2023-04-08T11:07:59;97921.50;;;7.65;31.57
43480;BME280;29067;35.492;-97.520;2023-04-08T11:10:28;97917.72;;;8.18;31.14
43480;BME280;29067;35.492;-97.520;2023-04-08T11:12:57;97919.88;;;7.83;32.04
43480;BME280;29067;35.492;-97.520;2023-04-08T11:15:25;97923.35;;;7.01;32.01
43480;BME280;29067;35.492;-97.520;2023-04-08T11:17:55;97923.85;;;7.61;31.85
43480;BME280;29067;35.492;-97.520;2023-04-08T11:20:22;97925.07;;;7.95;32.19
43480;BME280;29067;35.492;-97.520;2023-04-08T11:22:51;97930.73;;;6.44;33.20
43480;BME280;29067;35.492;-97.520;2023-04-08T11:25:20;97935.33;;;6.71;32.88
43480;BME280;29067;35.492;-97.520;2023-04-08T11:27:49;97932.72;;;7.92;32.14
43480;BME280;29067;35.492;-97.520;2023-04-08T11:30:17;97931.31;;;6.06;33.97
43480;BME280;29067;35.492;-97.520;2023-04-08T11:32:45;97933.18;;;6.98;33.17
43480;BME280;29067;35.492;-97.520;2023-04-08T11:35:16;97933.62;;;8.35;32.23
43480;BME280;29067;35.492;-97.520;2023-04-08T11:37:44;97934.05;;;7.28;32.43
43480;BME280;29067;35.492;-97.520;2023-04-08T11:40:18;97929.72;;;7.65;31.66
43480;BME280;29067;35.492;-97.520;2023-04-08T11:42:46;97932.93;;;7.81;31.39
43480;BME280;29067;35.492;-97.520;2023-04-08T11:45:15;97935.67;;;8.02;31.54
43480;BME280;29067;35.492;-97.520;2023-04-08T11:47:44;97938.57;;;7.86;31.45
43480;BME280;29067;35.492;-97.520;2023-04-08T11:50:12;97940.94;;;7.80;32.57
43480;BME280;29067;35.492;-97.520;2023-04-08T11:52:50;97942.94;;;7.44;32.81
43480;BME280;29067;35.492;-97.520;2023-04-08T11:55:24;97946.24;;;7.01;32.48
43480;BME280;29067;35.492;-97.520;2023-04-08T11:57:52;97947.26;;;7.45;31.79
43480;BME280;29067;35.492;-97.520;2023-04-08T12:00:21;97949.34;;;8.02;31.30
43480;BME280;29067;35.492;-97.520;2023-04-08T12:02:50;97955.18;;;7.63;31.03
43480;BME280;29067;35.492;-97.520;2023-04-08T12:05:19;97957.94;;;8.06;31.61
43480;BME280;29067;35.492;-97.520;2023-04-08T12:07:48;97958.21;;;6.50;31.98
43480;BME280;29067;35.492;-97.520;2023-04-08T12:10:15;97961.94;;;7.71;31.24
43480;BME280;29067;35.492;-97.520;2023-04-08T12:12:44;97963.43;;;7.95;30.90
43480;BME280;29067;35.492;-97.520;2023-04-08T12:15:12;97964.09;;;8.15;30.75
43480;BME280;29067;35.492;-97.520;2023-04-08T12:17:40;97960.23;;;8.59;30.78
43480;BME280;29067;35.492;-97.520;2023-04-08T12:20:09;97960.75;;;7.92;30.28
43480;BME280;29067;35.492;-97.520;2023-04-08T12:22:39;97964.58;;;8.27;30.57
43480;BME280;29067;35.492;-97.520;2023-04-08T12:25:07;97967.56;;;7.89;31.04
43480;BME280;29067;35.492;-97.520;2023-04-08T12:27:36;97973.07;;;7.41;31.35
43480;BME280;29067;35.492;-97.520;2023-04-08T12:30:04;97965.63;;;9.07;29.84
43480;BME280;29067;35.492;-97.520;2023-04-08T12:32:32;97965.48;;;8.78;29.73
43480;BME280;29067;35.492;-97.520;2023-04-08T12:35:00;97966.92;;;7.74;30.81
43480;BME280;29067;35.492;-97.520;2023-04-08T12:37:29;97970.37;;;8.12;29.99
43480;BME280;29067;35.492;-97.520;2023-04-08T12:39:57;97969.39;;;9.55;30.00
43480;BME280;29067;35.492;-97.520;2023-04-08T12:42:25;97975.87;;;7.77;30.63
43480;BME280;29067;35.492;-97.520;2023-04-08T12:44:55;97974.04;;;8.37;29.76
43480;BME280;29067;35.492;-97.520;2023-04-08T12:47:23;97975.19;;;8.71;29.61
43480;BME280;29067;35.492;-97.520;2023-04-08T12:49:51;97975.33;;;8.61;29.68
43480;BME280;29067;35.492;-97.520;2023-04-08T12:52:19;97970.25;;;9.36;29.39
43480;BME280;29067;35.492;-97.520;2023-04-08T12:54:47;97977.26;;;8.38;29.99
43480;BME280;29067;35.492;-97.520;2023-04-08T12:57:15;97979.62;;;8.58;29.32
43480;BME280;29067;35.492;-97.520;2023-04-08T12:59:42;97986.70;;;7.33;29.70